OI96 weather

National Heliport
Columbus, Ohio, United States

Public forecast

Using degrees Fahrenheit for public forecast. Weather courtesy of forecast.io.

METAR (pilot weather report)

Closest report is John Glenn Columbus International Airport, 4.7 nm (8.7 km) NW. Retrieved 2019/05/21 09:51 UTC (34 minutes ago):

KCMH 210951Z 03004KT 10SM OVC031 09/07 A3011 RMK AO2 SLP195 T00940067

TAF (pilot weather forecast)

Closest forecast is John Glenn Columbus International Airport, 4.7 nm (8.7 km) NW. Retrieved 2019/05/21 06:39 UTC (4 hours ago):

TAF KCMH 210536Z 2106/2206 02006KT P6SM FEW030 BKN250 FM211300 07008KT P6SM BKN120 FM212300 08009KT P6SM SCT100